createdAt,value
2023-01-11T00:00:39.640Z,1.45
2023-01-11T00:03:07.195Z,3.53
2023-01-11T00:05:44.658Z,6.30
2023-01-11T00:08:13.064Z,6.28
2023-01-11T00:10:40.546Z,1.98
2023-01-11T00:13:08.231Z,2.72
2023-01-11T00:15:36.854Z,1.13
2023-01-11T00:18:04.010Z,1.38
2023-01-11T00:20:31.039Z,1.42
2023-01-11T00:22:58.640Z,13.60
2023-01-11T00:25:25.681Z,2.75
2023-01-11T00:27:53.908Z,1.60
2023-01-11T00:30:20.999Z,6.93
2023-01-11T00:32:47.974Z,1.77
2023-01-11T00:35:15.331Z,2.15
2023-01-11T00:37:42.446Z,1.95
2023-01-11T00:40:09.965Z,4.43
2023-01-11T00:42:55.734Z,1.65
2023-01-11T00:45:41.285Z,8.85
2023-01-11T00:48:09.800Z,2.95
2023-01-11T00:50:41.258Z,3.05
2023-01-11T00:53:09.452Z,2.40
2023-01-11T00:55:36.733Z,1.70
2023-01-11T00:58:03.772Z,2.85
2023-01-11T01:00:31.543Z,1.60
2023-01-11T01:02:58.517Z,1.52
2023-01-11T01:05:25.575Z,2.03
2023-01-11T01:07:52.570Z,2.88
2023-01-11T01:10:20.341Z,5.32
2023-01-11T01:13:06.414Z,4.18
2023-01-11T01:15:34.029Z,1.80
2023-01-11T01:18:01.948Z,8.98
2023-01-11T01:20:29.064Z,1.55
2023-01-11T01:22:56.060Z,2.30
2023-01-11T01:25:23.179Z,1.60
2023-01-11T01:27:50.165Z,1.80
2023-01-11T01:30:17.347Z,3.50
2023-01-11T01:32:44.387Z,2.75
2023-01-11T01:35:11.609Z,2.70
2023-01-11T01:37:38.515Z,3.40
2023-01-11T01:40:06.119Z,2.47
2023-01-11T01:42:33.067Z,4.05
2023-01-11T01:45:24.862Z,3.22
2023-01-11T01:48:00.986Z,4.72
2023-01-11T01:50:35.268Z,2.28
2023-01-11T01:53:23.209Z,2.42
2023-01-11T01:55:54.841Z,4.60
2023-01-11T01:58:29.762Z,1.95
2023-01-11T02:00:56.859Z,4.32
2023-01-11T02:03:26.729Z,7.18
2023-01-11T02:05:54.552Z,3.08
2023-01-11T02:08:33.140Z,2.13
2023-01-11T02:11:00.464Z,2.47
2023-01-11T02:13:27.935Z,5.20
2023-01-11T02:16:08.804Z,2.88
2023-01-11T02:18:37.786Z,3.88
2023-01-11T02:21:26.123Z,3.10
2023-01-11T02:24:04.778Z,2.50
2023-01-11T02:27:18.038Z,3.55
2023-01-11T02:29:50.851Z,4.38
2023-01-11T02:32:17.770Z,3.97
2023-01-11T02:34:53.756Z,3.10
2023-01-11T02:37:37.493Z,4.95
2023-01-11T02:40:35.430Z,3.28
2023-01-11T02:43:33.005Z,3.97
2023-01-11T02:46:07.108Z,2.55
2023-01-11T02:48:52.718Z,1.77
2023-01-11T02:51:41.567Z,2.85
2023-01-11T02:54:13.824Z,3.55
2023-01-11T02:56:47.338Z,1.63
2023-01-11T02:59:24.315Z,4.78
2023-01-11T03:01:55.873Z,5.68
2023-01-11T03:04:22.944Z,2.58
2023-01-11T03:07:11.073Z,3.15
2023-01-11T03:10:13.708Z,2.20
2023-01-11T03:12:52.612Z,6.00
2023-01-11T03:15:44.350Z,4.82
2023-01-11T03:18:31.019Z,4.18
2023-01-11T03:21:23.961Z,2.45
2023-01-11T03:24:33.275Z,2.60
2023-01-11T03:27:33.915Z,2.92
2023-01-11T03:30:11.398Z,5.00
2023-01-11T03:33:13.587Z,4.93
2023-01-11T03:35:48.811Z,3.92
2023-01-11T03:38:38.813Z,2.25
2023-01-11T03:41:11.016Z,2.95
2023-01-11T03:43:41.399Z,4.20
2023-01-11T03:46:43.926Z,2.90
2023-01-11T03:49:23.206Z,3.45
2023-01-11T03:51:52.961Z,3.85
2023-01-11T03:54:23.644Z,2.47
2023-01-11T03:57:21.599Z,4.93
2023-01-11T03:59:50.565Z,2.88
2023-01-11T04:02:25.536Z,2.53
2023-01-11T04:04:52.604Z,3.70
2023-01-11T04:07:19.593Z,3.45
2023-01-11T04:09:47.039Z,3.45
2023-01-11T04:12:14.036Z,3.10
2023-01-11T04:14:41.046Z,3.38
2023-01-11T04:17:08.239Z,6.88
2023-01-11T04:19:35.174Z,3.95
2023-01-11T04:22:02.147Z,1.98
2023-01-11T04:24:29.085Z,4.97
2023-01-11T04:26:56.031Z,2.25
2023-01-11T04:29:22.936Z,3.95
2023-01-11T04:31:49.962Z,3.63
2023-01-11T04:34:17.014Z,2.25
2023-01-11T04:36:44.039Z,2.08
2023-01-11T04:39:11.052Z,6.32
2023-01-11T04:41:57.920Z,2.70
2023-01-11T04:44:25.488Z,5.82
2023-01-11T04:46:52.412Z,3.78
2023-01-11T04:49:19.361Z,3.25
2023-01-11T04:51:46.507Z,3.35
2023-01-11T04:54:13.482Z,2.97
2023-01-11T04:56:40.506Z,5.63
2023-01-11T04:59:07.552Z,4.78
2023-01-11T05:01:34.476Z,4.28
2023-01-11T05:04:01.562Z,6.40
2023-01-11T05:06:28.552Z,6.15
2023-01-11T05:08:55.497Z,4.13
2023-01-11T05:11:22.584Z,4.22
2023-01-11T05:13:49.585Z,3.10
2023-01-11T05:16:24.040Z,8.75
2023-01-11T05:18:59.276Z,3.05
2023-01-11T05:21:35.588Z,6.03
2023-01-11T05:24:04.675Z,8.82
2023-01-11T05:26:34.935Z,4.85
2023-01-11T05:29:05.049Z,3.35
2023-01-11T05:31:33.484Z,5.28
2023-01-11T05:34:01.398Z,4.13
2023-01-11T05:36:28.795Z,4.63
2023-01-11T05:38:57.603Z,4.00
2023-01-11T05:41:27.089Z,2.85
2023-01-11T05:44:13.979Z,8.15
2023-01-11T05:46:43.240Z,3.58
2023-01-11T05:49:12.709Z,4.30
2023-01-11T05:51:40.215Z,3.63
2023-01-11T05:54:10.812Z,6.05
2023-01-11T05:56:37.906Z,14.10
2023-01-11T05:59:05.548Z,4.75
2023-01-11T06:01:32.640Z,4.68
2023-01-11T06:03:59.596Z,8.35
2023-01-11T06:06:26.782Z,39.58
2023-01-11T06:08:53.855Z,12.05
2023-01-11T06:11:21.028Z,13.80
2023-01-11T06:13:48.156Z,11.18
2023-01-11T06:16:18.022Z,14.95
2023-01-11T06:18:47.709Z,6.20
2023-01-11T06:21:16.085Z,12.25
2023-01-11T06:23:45.663Z,6.10
2023-01-11T06:26:16.619Z,10.63
2023-01-11T06:28:44.204Z,10.52
2023-01-11T06:31:12.230Z,7.63
2023-01-11T06:33:39.721Z,7.00
2023-01-11T06:36:10.013Z,9.85
2023-01-11T06:38:37.818Z,6.78
2023-01-11T06:41:08.682Z,11.95
2023-01-11T06:43:37.892Z,14.10
2023-01-11T06:46:05.399Z,18.23
2023-01-11T06:48:32.539Z,13.43
2023-01-11T06:50:59.663Z,8.48
2023-01-11T06:53:29.208Z,17.50
2023-01-11T06:55:58.291Z,13.20
2023-01-11T06:58:26.684Z,8.43
2023-01-11T07:00:56.124Z,17.48
2023-01-11T07:03:25.282Z,10.00
2023-01-11T07:05:57.112Z,9.88
2023-01-11T07:08:25.950Z,8.90
2023-01-11T07:10:53.842Z,12.30
2023-01-11T07:13:20.952Z,10.65
2023-01-11T07:15:50.903Z,8.30
2023-01-11T07:18:19.581Z,10.75
2023-01-11T07:20:47.198Z,9.82
2023-01-11T07:23:14.792Z,11.80
2023-01-11T07:25:42.051Z,10.70
2023-01-11T07:28:10.275Z,15.80
2023-01-11T07:30:56.778Z,19.42
2023-01-11T07:33:26.506Z,12.05
2023-01-11T07:35:54.439Z,14.48
2023-01-11T07:38:21.737Z,18.52
2023-01-11T07:40:48.875Z,26.92
2023-01-11T07:43:16.030Z,19.67
2023-01-11T07:45:47.053Z,14.82
2023-01-11T07:48:16.060Z,18.05
2023-01-11T07:50:45.219Z,15.15
2023-01-11T07:53:13.983Z,18.90
2023-01-11T07:55:42.117Z,18.33
2023-01-11T07:58:12.263Z,14.90
2023-01-11T08:00:40.936Z,11.27
2023-01-11T08:03:08.366Z,13.48
2023-01-11T08:05:35.757Z,8.75
2023-01-11T08:08:03.147Z,10.25
2023-01-11T08:10:30.183Z,9.55
2023-01-11T08:13:16.549Z,12.88
2023-01-11T08:15:43.901Z,9.90
2023-01-11T08:18:12.166Z,9.52
2023-01-11T08:20:40.132Z,12.20
2023-01-11T08:23:09.583Z,7.35
2023-01-11T08:25:37.316Z,5.85
2023-01-11T08:28:06.727Z,8.13
2023-01-11T08:30:34.166Z,5.25
2023-01-11T08:33:03.466Z,6.95
2023-01-11T08:35:31.242Z,7.60
2023-01-11T08:37:59.413Z,5.60
2023-01-11T08:40:26.486Z,5.28
2023-01-11T08:42:57.197Z,3.97
2023-01-11T08:45:25.185Z,5.05
2023-01-11T08:47:52.591Z,10.75
2023-01-11T08:50:22.140Z,5.43
2023-01-11T08:52:51.579Z,7.35
2023-01-11T08:55:19.964Z,4.90
2023-01-11T08:57:47.293Z,6.93
2023-01-11T09:00:15.286Z,5.22
2023-01-11T09:02:42.551Z,6.55
2023-01-11T09:05:09.968Z,7.03
2023-01-11T09:07:36.972Z,4.55
2023-01-11T09:10:04.760Z,5.90
2023-01-11T09:12:32.954Z,6.00
2023-01-11T09:15:00.420Z,5.72
2023-01-11T09:17:28.130Z,6.97
2023-01-11T09:19:55.192Z,7.22
2023-01-11T09:22:22.199Z,6.25
2023-01-11T09:24:49.378Z,4.53
2023-01-11T09:27:16.688Z,6.70
2023-01-11T09:29:43.988Z,6.10
2023-01-11T09:32:11.087Z,8.52
2023-01-11T09:34:39.321Z,14.73
2023-01-11T09:37:07.236Z,6.80
2023-01-11T09:39:35.364Z,8.68
2023-01-11T09:42:39.646Z,8.18
2023-01-11T09:45:23.164Z,4.03
2023-01-11T09:47:57.219Z,7.80
2023-01-11T09:50:28.867Z,4.97
2023-01-11T09:52:59.911Z,4.72
2023-01-11T09:55:37.853Z,4.38
2023-01-11T09:58:38.359Z,3.97
2023-01-11T10:01:39.132Z,3.15
2023-01-11T10:04:28.814Z,4.25
2023-01-11T10:07:23.195Z,3.20
2023-01-11T10:18:34.385Z,5.72
2023-01-11T10:19:35.887Z,1.85
2023-01-11T10:22:41.231Z,1.90
2023-01-11T10:25:22.092Z,2.17
2023-01-11T10:28:25.208Z,1.92
2023-01-11T10:30:59.419Z,3.10
2023-01-11T10:34:03.937Z,2.13
2023-01-11T10:37:28.395Z,2.20
2023-01-11T10:41:00.680Z,3.53
2023-01-11T10:43:31.524Z,2.78
2023-01-11T10:46:20.416Z,2.72
2023-01-11T10:48:47.767Z,1.60
2023-01-11T10:51:28.222Z,1.35
2023-01-11T10:54:18.178Z,6.25
2023-01-11T10:57:11.683Z,2.70
2023-01-11T10:59:52.192Z,1.83
2023-01-11T11:02:37.911Z,1.40
2023-01-11T11:05:25.225Z,1.92
2023-01-11T11:08:07.066Z,1.40
2023-01-11T11:10:50.361Z,8.68
2023-01-11T11:13:27.134Z,2.85
2023-01-11T11:16:00.036Z,3.03
2023-01-11T11:18:27.643Z,1.95
2023-01-11T11:20:56.317Z,3.63
2023-01-11T11:23:26.156Z,2.50
2023-01-11T11:25:58.869Z,1.70
2023-01-11T11:28:29.819Z,4.32
2023-01-11T11:31:04.357Z,1.88
2023-01-11T11:33:46.315Z,1.60
2023-01-11T11:36:15.258Z,1.65
2023-01-11T11:39:05.646Z,2.45
2023-01-11T11:41:47.198Z,2.33
2023-01-11T11:44:32.681Z,2.20
2023-01-11T11:47:06.315Z,2.13
2023-01-11T11:49:38.516Z,1.75
2023-01-11T11:52:07.394Z,2.45
2023-01-11T11:54:53.939Z,1.75
2023-01-11T11:57:28.339Z,1.10
2023-01-11T12:00:05.574Z,1.63
2023-01-11T12:02:34.502Z,1.40
2023-01-11T12:05:07.742Z,5.47
2023-01-11T12:07:54.766Z,2.85
2023-01-11T12:10:28.205Z,1.90
2023-01-11T12:12:56.313Z,1.98
2023-01-11T12:15:31.565Z,3.70
2023-01-11T12:18:29.018Z,1.80
2023-01-11T12:20:56.114Z,2.25
2023-01-11T12:23:25.805Z,5.47
2023-01-11T12:26:00.167Z,4.03
2023-01-11T12:29:02.746Z,1.50
2023-01-11T12:31:47.276Z,4.57
2023-01-11T12:34:51.440Z,1.70
2023-01-11T12:37:42.423Z,5.35
2023-01-11T12:40:32.996Z,1.25
2023-01-11T12:43:15.566Z,1.77
2023-01-11T12:45:56.417Z,2.08
2023-01-11T12:48:32.879Z,2.33
2023-01-11T12:51:13.879Z,2.45
2023-01-11T12:53:59.548Z,2.00
2023-01-11T12:56:39.899Z,3.20
2023-01-11T12:59:13.016Z,1.60
2023-01-11T13:01:54.000Z,1.88
2023-01-11T13:04:30.835Z,3.08
2023-01-11T13:07:34.005Z,5.40
2023-01-11T13:10:16.188Z,2.60
2023-01-11T13:12:56.003Z,4.70
2023-01-11T13:15:26.877Z,4.97
2023-01-11T13:18:12.223Z,4.00
2023-01-11T13:21:02.149Z,8.07
2023-01-11T13:23:48.417Z,9.38
2023-01-11T13:26:26.337Z,5.82
2023-01-11T13:29:19.382Z,10.10
2023-01-11T13:31:48.869Z,9.05
2023-01-11T13:34:50.583Z,10.25
2023-01-11T13:37:20.221Z,6.43
2023-01-11T13:39:54.759Z,6.97
2023-01-11T13:42:34.330Z,10.13
2023-01-11T13:45:18.775Z,6.75
2023-01-11T13:48:01.980Z,15.02
2023-01-11T13:50:35.710Z,8.05
2023-01-11T13:53:12.141Z,11.23
2023-01-11T13:55:59.831Z,8.38
2023-01-11T13:58:47.072Z,8.25
2023-01-11T14:01:18.831Z,7.22
2023-01-11T14:04:06.763Z,7.97
2023-01-11T14:06:42.612Z,9.40
2023-01-11T14:09:12.179Z,9.48
2023-01-11T14:11:58.706Z,6.93
2023-01-11T14:14:31.740Z,7.55
2023-01-11T14:16:58.843Z,6.72
2023-01-11T14:19:47.608Z,11.45
2023-01-11T14:22:51.415Z,9.52
2023-01-11T14:25:30.922Z,7.32
2023-01-11T14:28:21.338Z,10.73
2023-01-11T14:31:07.196Z,9.00
2023-01-11T14:33:53.218Z,5.10
2023-01-11T14:36:44.181Z,6.32
2023-01-11T14:39:41.454Z,5.55
2023-01-11T14:42:30.554Z,5.70
2023-01-11T14:45:28.654Z,9.48
2023-01-11T14:47:59.563Z,4.50
2023-01-11T14:51:11.000Z,11.32
2023-01-11T14:53:57.653Z,6.22
2023-01-11T14:56:42.585Z,4.90
2023-01-11T14:59:38.904Z,6.75
2023-01-11T15:02:05.981Z,6.25
2023-01-11T15:04:59.238Z,7.10
2023-01-11T15:07:29.193Z,7.53
2023-01-11T15:09:58.488Z,7.55
2023-01-11T15:12:32.295Z,4.20
2023-01-11T15:15:06.290Z,7.25
2023-01-11T15:17:53.483Z,5.10
2023-01-11T15:20:22.137Z,8.52
2023-01-11T15:23:17.191Z,5.50
2023-01-11T15:25:49.753Z,9.85
2023-01-11T15:28:51.011Z,4.13
2023-01-11T15:31:33.265Z,6.28
2023-01-11T15:34:26.376Z,6.70
2023-01-11T15:37:03.598Z,6.05
2023-01-11T15:39:53.868Z,10.55
2023-01-11T15:42:51.991Z,8.30
2023-01-11T15:46:03.573Z,5.68
2023-01-11T15:48:39.225Z,5.47
2023-01-11T15:51:36.327Z,15.00
2023-01-11T15:54:38.472Z,11.07
2023-01-11T15:57:32.320Z,6.32
2023-01-11T16:00:23.932Z,10.32
2023-01-11T16:02:59.308Z,4.90
2023-01-11T16:05:34.333Z,4.13
2023-01-11T16:08:13.287Z,5.63
2023-01-11T16:10:49.502Z,4.38
2023-01-11T16:13:38.144Z,4.20
2023-01-11T16:16:10.918Z,7.03
2023-01-11T16:19:11.195Z,5.10
2023-01-11T16:21:40.890Z,9.25
2023-01-11T16:24:10.913Z,9.50
2023-01-11T16:26:41.047Z,7.72
2023-01-11T16:29:14.624Z,8.10
2023-01-11T16:31:55.636Z,11.00
2023-01-11T16:34:23.059Z,5.88
2023-01-11T16:36:50.115Z,5.82
2023-01-11T16:39:33.269Z,12.18
2023-01-11T16:42:06.307Z,8.55
2023-01-11T16:44:50.184Z,9.82
2023-01-11T16:47:19.836Z,7.50
2023-01-11T16:49:50.261Z,15.80
2023-01-11T16:52:35.549Z,12.23
2023-01-11T16:55:12.892Z,10.77
2023-01-11T16:57:44.279Z,6.22
2023-01-11T17:00:35.877Z,7.68
2023-01-11T17:03:18.350Z,8.43
2023-01-11T17:05:57.636Z,14.32
2023-01-11T17:08:33.301Z,9.88
2023-01-11T17:11:04.521Z,7.75
2023-01-11T17:14:19.081Z,6.90
2023-01-11T17:16:50.551Z,5.80
2023-01-11T17:19:23.868Z,9.10
2023-01-11T17:22:01.700Z,15.27
2023-01-11T17:24:29.750Z,16.00
2023-01-11T17:27:00.498Z,12.70
2023-01-11T17:29:38.183Z,9.80
2023-01-11T17:32:12.992Z,9.02
2023-01-11T17:34:40.804Z,6.35
2023-01-11T17:37:13.383Z,5.82
2023-01-11T17:39:45.561Z,6.68
2023-01-11T17:42:33.314Z,5.80
2023-01-11T17:45:14.917Z,7.97
2023-01-11T17:47:47.644Z,6.68
2023-01-11T17:50:36.257Z,5.75
2023-01-11T17:53:34.531Z,6.93
2023-01-11T17:56:28.405Z,13.43
2023-01-11T17:59:16.886Z,16.55
2023-01-11T18:01:50.752Z,11.95
2023-01-11T18:04:22.475Z,8.13
2023-01-11T18:06:53.268Z,6.50
2023-01-11T18:09:37.227Z,12.95
2023-01-11T18:12:33.128Z,9.88
2023-01-11T18:15:05.983Z,6.57
2023-01-11T18:17:33.047Z,12.07
2023-01-11T18:20:01.472Z,13.35
2023-01-11T18:22:33.200Z,9.20
2023-01-11T18:25:05.395Z,8.73
2023-01-11T18:27:36.414Z,9.18
2023-01-11T18:30:07.995Z,8.63
2023-01-11T18:32:43.753Z,6.72
2023-01-11T18:35:19.148Z,8.80
2023-01-11T18:37:47.352Z,11.82
2023-01-11T18:40:17.059Z,14.30
2023-01-11T18:42:47.580Z,11.55
2023-01-11T18:45:15.138Z,11.48
2023-01-11T18:47:42.540Z,13.60
2023-01-11T18:50:13.732Z,10.52
2023-01-11T18:52:42.476Z,13.27
2023-01-11T18:55:12.037Z,7.80
2023-01-11T18:57:40.039Z,10.98
2023-01-11T19:00:07.971Z,7.70
2023-01-11T19:02:44.316Z,9.40
2023-01-11T19:05:14.965Z,5.90
2023-01-11T19:07:42.396Z,7.13
2023-01-11T19:10:10.949Z,5.90
2023-01-11T19:12:38.683Z,9.55
2023-01-11T19:15:06.526Z,11.40
2023-01-11T19:17:35.492Z,8.13
2023-01-11T19:20:03.088Z,6.75
2023-01-11T19:22:30.545Z,12.25
2023-01-11T19:24:57.977Z,9.68
2023-01-11T19:27:25.462Z,14.55
2023-01-11T19:29:54.545Z,15.10
2023-01-11T19:32:25.836Z,16.08
2023-01-11T19:34:58.292Z,23.42
2023-01-11T19:37:27.535Z,12.55
2023-01-11T19:39:54.942Z,9.48
2023-01-11T19:42:23.981Z,15.45
2023-01-11T19:44:51.939Z,13.15
2023-01-11T19:47:19.340Z,11.52
2023-01-11T19:49:46.426Z,7.95
2023-01-11T19:52:19.414Z,12.77
2023-01-11T19:54:47.926Z,10.68
2023-01-11T19:57:23.647Z,15.73
2023-01-11T19:59:50.958Z,17.38
2023-01-11T20:02:21.606Z,16.42
2023-01-11T20:04:49.074Z,10.52
2023-01-11T20:07:16.620Z,6.90
2023-01-11T20:09:44.410Z,11.82
2023-01-11T20:12:13.763Z,9.77
2023-01-11T20:14:41.328Z,12.82
2023-01-11T20:17:08.933Z,11.13
2023-01-11T20:19:36.208Z,9.95
2023-01-11T20:22:03.734Z,8.05
2023-01-11T20:24:31.083Z,12.10
2023-01-11T20:27:00.312Z,9.30
2023-01-11T20:29:27.397Z,8.57
2023-01-11T20:31:54.503Z,9.05
2023-01-11T20:34:22.595Z,5.63
2023-01-11T20:36:50.742Z,7.78
2023-01-11T20:39:19.749Z,7.70
2023-01-11T20:41:47.569Z,7.28
2023-01-11T20:44:25.039Z,7.32
2023-01-11T20:46:53.809Z,7.78
2023-01-11T20:49:24.498Z,10.30
2023-01-11T20:51:51.916Z,11.25
2023-01-11T20:54:19.447Z,10.27
2023-01-11T20:56:47.144Z,17.60
2023-01-11T20:59:17.796Z,10.27
2023-01-11T21:01:44.960Z,12.68
2023-01-11T21:04:13.251Z,15.82
2023-01-11T21:06:42.810Z,18.10
2023-01-11T21:09:12.855Z,9.13
2023-01-11T21:11:40.545Z,6.53
2023-01-11T21:14:12.262Z,6.85
2023-01-11T21:16:44.455Z,8.20
2023-01-11T21:19:13.804Z,9.18
2023-01-11T21:21:41.823Z,7.70
2023-01-11T21:24:14.553Z,10.60
2023-01-11T21:26:43.795Z,9.15
2023-01-11T21:29:12.232Z,12.07
2023-01-11T21:31:40.637Z,10.27
2023-01-11T21:34:10.405Z,11.25
2023-01-11T21:36:37.408Z,10.55
2023-01-11T21:39:04.912Z,15.30
2023-01-11T21:41:52.352Z,12.50
2023-01-11T21:44:21.114Z,9.63
2023-01-11T21:46:49.363Z,9.10
2023-01-11T21:49:17.139Z,10.80
2023-01-11T21:51:44.299Z,9.43
2023-01-11T21:54:14.497Z,8.50
2023-01-11T21:56:42.153Z,9.30
2023-01-11T21:59:09.321Z,12.82
2023-01-11T22:01:37.650Z,11.60
2023-01-11T22:04:06.839Z,11.15
2023-01-11T22:06:38.551Z,9.02
2023-01-11T22:09:06.935Z,11.02
2023-01-11T22:11:33.970Z,12.40
2023-01-11T22:14:07.011Z,11.45
2023-01-11T22:16:35.292Z,12.90
2023-01-11T22:19:03.329Z,15.82
2023-01-11T22:21:30.427Z,10.52
2023-01-11T22:23:59.522Z,13.45
2023-01-11T22:26:29.094Z,15.13
2023-01-11T22:29:12.135Z,9.60
2023-01-11T22:31:56.173Z,11.23
2023-01-11T22:34:24.372Z,13.05
2023-01-11T22:36:51.531Z,9.82
2023-01-11T22:39:21.614Z,10.80
2023-01-11T22:41:49.083Z,10.68
2023-01-11T22:44:17.457Z,9.23
2023-01-11T22:46:45.359Z,9.80
2023-01-11T22:49:13.069Z,9.88
2023-01-11T22:51:42.002Z,7.57
2023-01-11T22:54:09.408Z,7.30
2023-01-11T22:56:37.028Z,6.18
2023-01-11T22:59:04.237Z,9.07
2023-01-11T23:01:36.717Z,9.38
2023-01-11T23:04:04.679Z,10.90
2023-01-11T23:06:37.293Z,8.40
2023-01-11T23:09:06.664Z,9.45
2023-01-11T23:11:56.818Z,7.55
2023-01-11T23:14:29.360Z,9.93
2023-01-11T23:17:17.966Z,7.53
2023-01-11T23:19:45.849Z,9.10
2023-01-11T23:22:15.779Z,7.10
2023-01-11T23:24:42.777Z,8.13
2023-01-11T23:27:09.862Z,9.02
2023-01-11T23:29:36.965Z,8.57
2023-01-11T23:32:04.166Z,7.72
2023-01-11T23:34:31.322Z,7.97
2023-01-11T23:36:58.350Z,11.10
2023-01-11T23:39:25.385Z,7.72
2023-01-11T23:42:11.024Z,7.47
2023-01-11T23:44:38.183Z,7.93
2023-01-11T23:47:25.326Z,6.65
2023-01-11T23:50:03.276Z,7.55
2023-01-11T23:52:31.955Z,8.00
2023-01-11T23:54:59.583Z,7.40
2023-01-11T23:57:27.104Z,7.70
2023-01-11T23:59:54.185Z,9.10
